createdAt,value
2019-03-25T00:00:07.991Z,0.00
2019-03-25T00:01:07.998Z,0.00
2019-03-25T00:02:07.976Z,0.00
2019-03-25T00:03:07.961Z,0.00
2019-03-25T00:04:07.957Z,0.00
2019-03-25T00:05:08.084Z,0.00
2019-03-25T00:06:07.930Z,0.00
2019-03-25T00:07:07.913Z,0.00
2019-03-25T00:08:07.903Z,0.00
2019-03-25T00:09:07.892Z,0.00
2019-03-25T00:10:07.885Z,0.00
2019-03-25T00:11:08.034Z,0.00
2019-03-25T00:12:07.861Z,0.00
2019-03-25T00:13:07.850Z,0.00
2019-03-25T00:14:07.842Z,0.00
2019-03-25T00:15:07.831Z,0.00
2019-03-25T00:16:07.819Z,0.00
2019-03-25T00:17:07.897Z,0.00
2019-03-25T00:18:07.800Z,0.00
2019-03-25T00:19:07.798Z,0.00
2019-03-25T00:20:07.780Z,0.00
2019-03-25T00:21:07.760Z,0.00
2019-03-25T00:22:07.752Z,0.00
2019-03-25T00:23:07.834Z,0.00
2019-03-25T00:24:07.729Z,0.00
2019-03-25T00:25:07.722Z,0.00
2019-03-25T00:26:07.707Z,0.00
2019-03-25T00:27:07.695Z,0.00
2019-03-25T00:28:07.689Z,0.00
2019-03-25T00:29:07.873Z,0.00
2019-03-25T00:30:07.666Z,0.00
2019-03-25T00:31:07.660Z,0.00
2019-03-25T00:32:07.642Z,0.00
2019-03-25T00:33:07.631Z,0.00
2019-03-25T00:34:07.624Z,0.00
2019-03-25T00:35:07.932Z,0.00
2019-03-25T00:36:07.615Z,0.00
2019-03-25T00:37:07.586Z,0.00
2019-03-25T00:38:07.576Z,0.00
2019-03-25T00:39:07.569Z,0.00
2019-03-25T00:40:07.561Z,0.00
2019-03-25T00:41:07.637Z,0.00
2019-03-25T00:42:07.533Z,0.00
2019-03-25T00:43:07.524Z,0.00
2019-03-25T00:44:07.513Z,0.00
2019-03-25T00:45:07.500Z,0.00
2019-03-25T00:46:07.499Z,0.00
2019-03-25T00:47:07.603Z,0.00
2019-03-25T00:48:07.468Z,0.00
2019-03-25T00:49:07.457Z,0.00
2019-03-25T00:50:07.449Z,0.00
2019-03-25T00:51:07.442Z,0.00
2019-03-25T00:52:07.429Z,0.00
2019-03-25T00:53:07.516Z,0.00
2019-03-25T00:54:07.402Z,0.00
2019-03-25T00:55:07.398Z,0.00
2019-03-25T00:56:07.387Z,0.00
2019-03-25T00:57:07.374Z,0.00
2019-03-25T00:58:07.366Z,0.00
2019-03-25T00:59:07.509Z,0.00
2019-03-25T01:00:07.339Z,0.00
2019-03-25T01:01:07.329Z,0.00
2019-03-25T01:02:07.318Z,0.00
2019-03-25T01:03:07.308Z,0.00
2019-03-25T01:04:07.295Z,0.00
2019-03-25T01:05:07.482Z,0.00
2019-03-25T01:06:07.281Z,0.00
2019-03-25T01:07:07.263Z,0.00
2019-03-25T01:08:07.252Z,0.00
2019-03-25T01:09:07.247Z,0.00
2019-03-25T01:10:07.234Z,0.00
2019-03-25T01:11:07.348Z,0.00
2019-03-25T01:12:07.216Z,0.00
2019-03-25T01:13:07.200Z,0.00
2019-03-25T01:14:07.188Z,0.00
2019-03-25T01:15:07.180Z,0.00
2019-03-25T01:16:07.170Z,0.00
2019-03-25T01:17:07.333Z,0.00
2019-03-25T01:18:16.334Z,0.00
2019-03-25T01:19:08.134Z,0.00
2019-03-25T01:20:07.143Z,0.00
2019-03-25T01:21:07.118Z,0.00
2019-03-25T01:22:07.100Z,0.00
2019-03-25T01:23:07.190Z,0.00
2019-03-25T01:24:07.079Z,0.00
2019-03-25T01:25:07.066Z,0.00
2019-03-25T01:26:07.055Z,0.00
2019-03-25T01:27:07.046Z,0.00
2019-03-25T01:28:07.034Z,0.00
2019-03-25T01:29:07.123Z,0.00
2019-03-25T01:30:07.013Z,0.00
2019-03-25T01:31:07.001Z,0.00
2019-03-25T01:32:06.993Z,0.00
2019-03-25T01:33:06.983Z,0.00
2019-03-25T01:34:06.976Z,0.00
2019-03-25T01:35:07.132Z,0.00
2019-03-25T01:36:06.946Z,0.00
2019-03-25T01:37:06.967Z,0.00
2019-03-25T01:38:06.936Z,0.00
2019-03-25T01:39:06.915Z,0.00
2019-03-25T01:40:06.911Z,0.00
2019-03-25T01:41:06.997Z,0.00
2019-03-25T01:42:06.892Z,0.00
2019-03-25T01:43:06.875Z,0.00
2019-03-25T01:44:06.862Z,0.00
2019-03-25T01:45:06.849Z,0.00
2019-03-25T01:46:06.839Z,0.00
2019-03-25T01:47:06.925Z,0.00
2019-03-25T01:48:06.817Z,0.00
2019-03-25T01:49:06.813Z,0.00
2019-03-25T01:50:06.795Z,0.00
2019-03-25T01:51:06.788Z,0.00
2019-03-25T01:52:06.779Z,0.00
2019-03-25T01:53:07.038Z,0.00
2019-03-25T01:54:06.765Z,0.00
2019-03-25T01:55:13.460Z,0.00
2019-03-25T01:56:07.729Z,0.00
2019-03-25T01:57:06.719Z,0.00
2019-03-25T01:58:06.715Z,0.00
2019-03-25T01:59:06.791Z,0.00
2019-03-25T02:00:06.687Z,0.00
2019-03-25T02:01:06.676Z,0.00
2019-03-25T02:02:06.668Z,0.00
2019-03-25T02:03:06.655Z,0.00
2019-03-25T02:04:06.646Z,0.00
2019-03-25T02:05:06.726Z,0.00
2019-03-25T02:06:06.623Z,0.00
2019-03-25T02:07:06.611Z,0.00
2019-03-25T02:08:06.600Z,0.00
2019-03-25T02:09:06.595Z,0.00
2019-03-25T02:10:06.580Z,0.00
2019-03-25T02:11:06.858Z,0.00
2019-03-25T02:12:06.557Z,0.00
2019-03-25T02:13:06.548Z,0.00
2019-03-25T02:14:06.539Z,0.00
2019-03-25T02:15:06.532Z,0.00
2019-03-25T02:16:06.520Z,0.00
2019-03-25T02:17:06.696Z,0.00
2019-03-25T02:18:06.496Z,0.00
2019-03-25T02:19:06.481Z,0.00
2019-03-25T02:20:06.474Z,0.00
2019-03-25T02:21:06.460Z,0.00
2019-03-25T02:22:06.451Z,0.00
2019-03-25T02:23:06.836Z,0.00
2019-03-25T02:24:06.430Z,0.00
2019-03-25T02:25:06.417Z,0.00
2019-03-25T02:26:06.407Z,0.00
2019-03-25T02:27:06.395Z,0.00
2019-03-25T02:28:06.386Z,0.00
2019-03-25T02:29:06.533Z,0.00
2019-03-25T02:30:06.365Z,0.00
2019-03-25T02:31:06.352Z,0.00
2019-03-25T02:32:06.341Z,0.00
2019-03-25T02:33:06.339Z,0.00
2019-03-25T02:34:06.318Z,0.00
2019-03-25T02:35:06.577Z,0.00
2019-03-25T02:36:06.326Z,0.00
2019-03-25T02:37:06.295Z,0.00
2019-03-25T02:38:06.279Z,0.00
2019-03-25T02:39:06.267Z,0.00
2019-03-25T02:40:06.275Z,0.00
2019-03-25T02:41:06.354Z,0.00
2019-03-25T02:42:06.235Z,0.00
2019-03-25T02:43:06.223Z,0.00
2019-03-25T02:44:06.211Z,0.00
2019-03-25T02:45:06.199Z,0.00
2019-03-25T02:46:06.191Z,0.00
2019-03-25T02:47:06.281Z,0.00
2019-03-25T02:48:06.167Z,0.00
2019-03-25T02:49:06.156Z,0.00
2019-03-25T02:50:06.152Z,0.00
2019-03-25T02:51:06.138Z,0.00
2019-03-25T02:52:06.130Z,0.00
2019-03-25T02:53:06.352Z,0.00
2019-03-25T02:54:06.103Z,0.00
2019-03-25T02:55:06.095Z,0.00
2019-03-25T02:56:06.091Z,0.00
2019-03-25T02:57:06.075Z,0.00
2019-03-25T02:58:06.071Z,0.00
2019-03-25T02:59:06.209Z,0.00
2019-03-25T03:00:06.037Z,0.00
2019-03-25T03:01:06.027Z,0.00
2019-03-25T03:02:06.026Z,0.00
2019-03-25T03:03:06.010Z,0.00
2019-03-25T03:04:06.995Z,0.00
2019-03-25T03:05:06.091Z,0.00
2019-03-25T03:06:05.973Z,0.00
2019-03-25T03:07:05.971Z,0.00
2019-03-25T03:08:05.961Z,0.00
2019-03-25T03:09:05.943Z,0.00
2019-03-25T03:10:05.928Z,0.00
2019-03-25T03:11:06.029Z,0.00
2019-03-25T03:12:05.911Z,0.00
2019-03-25T03:13:05.918Z,0.00
2019-03-25T03:14:05.887Z,0.00
2019-03-25T03:15:05.875Z,0.00
2019-03-25T03:16:05.866Z,0.00
2019-03-25T03:17:06.060Z,0.00
2019-03-25T03:18:05.846Z,0.00
2019-03-25T03:19:05.834Z,0.00
2019-03-25T03:20:05.827Z,0.00
2019-03-25T03:21:05.817Z,0.00
2019-03-25T03:22:05.806Z,0.00
2019-03-25T03:23:05.996Z,0.00
2019-03-25T03:24:05.778Z,0.00
2019-03-25T03:25:05.766Z,0.00
2019-03-25T03:26:05.756Z,0.00
2019-03-25T03:27:05.746Z,0.00
2019-03-25T03:28:05.736Z,0.00
2019-03-25T03:29:05.819Z,0.00
2019-03-25T03:30:05.713Z,0.00
2019-03-25T03:31:05.703Z,0.00
2019-03-25T03:32:05.694Z,0.00
2019-03-25T03:33:05.950Z,0.00
2019-03-25T03:34:05.670Z,0.00
2019-03-25T03:35:05.764Z,0.00
2019-03-25T03:36:05.649Z,0.00
2019-03-25T03:37:05.639Z,0.00
2019-03-25T03:38:05.629Z,0.00
2019-03-25T03:39:05.622Z,0.00
2019-03-25T03:40:05.611Z,0.00
2019-03-25T03:41:05.866Z,0.00
2019-03-25T03:42:05.587Z,0.00
2019-03-25T03:43:05.585Z,0.00
2019-03-25T03:44:05.560Z,0.00
2019-03-25T03:45:05.558Z,0.00
2019-03-25T03:46:05.539Z,0.00
2019-03-25T03:47:05.694Z,0.00
2019-03-25T03:48:05.520Z,0.00
2019-03-25T03:49:05.529Z,0.00
2019-03-25T03:50:05.495Z,0.00
2019-03-25T03:51:05.484Z,0.00
2019-03-25T03:52:05.485Z,0.00
2019-03-25T03:53:05.563Z,0.00
2019-03-25T03:54:05.465Z,0.00
2019-03-25T03:55:05.456Z,0.00
2019-03-25T03:56:12.980Z,0.00
2019-03-25T03:57:06.422Z,0.00
2019-03-25T03:58:05.415Z,0.00
2019-03-25T03:59:05.777Z,0.00
2019-03-25T04:00:05.392Z,0.00
2019-03-25T04:01:05.394Z,0.00
2019-03-25T04:02:05.368Z,0.00
2019-03-25T04:03:05.359Z,4.00
2019-03-25T04:04:05.346Z,0.00
2019-03-25T04:05:05.515Z,0.00
2019-03-25T04:06:05.331Z,0.00
2019-03-25T04:07:05.324Z,0.00
2019-03-25T04:08:05.300Z,0.00
2019-03-25T04:09:05.289Z,0.00
2019-03-25T04:10:05.283Z,0.00
2019-03-25T04:11:05.389Z,0.00
2019-03-25T04:12:05.290Z,0.00
2019-03-25T04:13:05.247Z,4.00
2019-03-25T04:14:05.247Z,4.00
2019-03-25T04:15:05.225Z,0.00
2019-03-25T04:16:05.220Z,0.00
2019-03-25T04:17:05.315Z,0.00
2019-03-25T04:18:05.206Z,0.00
2019-03-25T04:19:05.188Z,0.00
2019-03-25T04:20:05.175Z,0.00
2019-03-25T04:21:05.165Z,0.00
2019-03-25T04:22:05.164Z,0.00
2019-03-25T04:23:05.441Z,4.00
2019-03-25T04:24:05.128Z,0.00
2019-03-25T04:25:05.116Z,0.00
2019-03-25T04:26:05.114Z,0.00
2019-03-25T04:27:05.101Z,0.00
2019-03-25T04:28:05.083Z,4.00
2019-03-25T04:29:05.176Z,0.00
2019-03-25T04:30:05.062Z,4.00
2019-03-25T04:31:05.053Z,4.00
2019-03-25T04:32:06.328Z,4.00
2019-03-25T04:33:05.032Z,4.00
2019-03-25T04:34:05.027Z,4.00
2019-03-25T04:35:05.310Z,4.00
2019-03-25T04:36:05.001Z,4.00
2019-03-25T04:37:05.019Z,4.00
2019-03-25T04:38:04.978Z,4.00
2019-03-25T04:39:04.965Z,4.00
2019-03-25T04:40:04.977Z,4.00
2019-03-25T04:41:05.137Z,4.00
2019-03-25T04:42:04.940Z,4.00
2019-03-25T04:43:04.926Z,0.00
2019-03-25T04:44:04.915Z,0.00
2019-03-25T04:45:04.899Z,0.00
2019-03-25T04:46:04.897Z,0.00
2019-03-25T04:47:04.971Z,0.00
2019-03-25T04:48:04.876Z,0.00
2019-03-25T04:49:04.857Z,0.00
2019-03-25T04:50:04.846Z,0.00
2019-03-25T04:51:04.834Z,0.00
2019-03-25T04:52:04.837Z,0.00
2019-03-25T04:53:04.916Z,0.00
2019-03-25T04:54:04.802Z,0.00
2019-03-25T04:55:04.791Z,0.00
2019-03-25T04:56:04.784Z,4.00
2019-03-25T04:57:04.770Z,4.00
2019-03-25T04:58:04.759Z,4.00
2019-03-25T04:59:05.573Z,4.00
2019-03-25T05:00:04.736Z,4.00
2019-03-25T05:01:04.730Z,4.00
2019-03-25T05:02:04.727Z,4.00
2019-03-25T05:03:04.716Z,0.00
2019-03-25T05:04:04.700Z,4.00
2019-03-25T05:05:04.873Z,4.00
2019-03-25T05:06:04.672Z,4.00
2019-03-25T05:07:04.673Z,4.00
2019-03-25T05:08:04.657Z,4.00
2019-03-25T05:09:04.648Z,4.00
2019-03-25T05:10:04.630Z,4.00
2019-03-25T05:11:04.723Z,4.00
2019-03-25T05:12:04.618Z,4.00
2019-03-25T05:13:04.610Z,4.00
2019-03-25T05:14:04.599Z,4.00
2019-03-25T05:15:04.575Z,8.00
2019-03-25T05:16:04.564Z,4.00
2019-03-25T05:17:04.650Z,8.00
2019-03-25T05:18:04.547Z,4.00
2019-03-25T05:19:04.539Z,4.00
2019-03-25T05:20:04.527Z,4.00
2019-03-25T05:21:04.511Z,4.00
2019-03-25T05:22:04.503Z,8.00
2019-03-25T05:23:04.737Z,4.00
2019-03-25T05:24:04.482Z,4.00
2019-03-25T05:25:04.474Z,8.00
2019-03-25T05:26:04.460Z,4.00
2019-03-25T05:27:04.444Z,8.00
2019-03-25T05:28:04.447Z,8.00
2019-03-25T05:29:04.515Z,8.00
2019-03-25T05:30:04.420Z,4.00
2019-03-25T05:31:04.407Z,4.00
2019-03-25T05:32:04.401Z,8.00
2019-03-25T05:33:04.378Z,8.00
2019-03-25T05:34:04.367Z,8.00
2019-03-25T05:35:04.557Z,12.00
2019-03-25T05:36:04.349Z,8.00
2019-03-25T05:37:04.334Z,8.00
2019-03-25T05:38:04.326Z,8.00
2019-03-25T05:39:04.327Z,8.00
2019-03-25T05:40:04.304Z,12.00
2019-03-25T05:41:04.402Z,12.00
2019-03-25T05:42:04.282Z,12.00
2019-03-25T05:43:04.271Z,8.00
2019-03-25T05:44:04.278Z,8.00
2019-03-25T05:45:04.256Z,8.00
2019-03-25T05:46:04.246Z,8.00
2019-03-25T05:47:04.396Z,8.00
2019-03-25T05:48:04.215Z,12.00
2019-03-25T05:49:04.217Z,8.00
2019-03-25T05:50:04.230Z,12.00
2019-03-25T05:51:04.182Z,8.00
2019-03-25T05:52:04.171Z,12.00
2019-03-25T05:53:05.266Z,8.00
2019-03-25T05:54:04.162Z,12.00
2019-03-25T05:55:04.142Z,12.00
2019-03-25T05:56:04.146Z,8.00
2019-03-25T05:57:04.122Z,8.00
2019-03-25T05:58:04.107Z,12.00
2019-03-25T05:59:04.298Z,8.00
2019-03-25T06:00:04.089Z,12.00
2019-03-25T06:01:04.078Z,12.00
2019-03-25T06:02:04.071Z,8.00
2019-03-25T06:03:04.067Z,8.00
2019-03-25T06:04:04.047Z,12.00
2019-03-25T06:05:04.139Z,8.00
2019-03-25T06:06:04.046Z,8.00
2019-03-25T06:07:04.016Z,4.00
2019-03-25T06:08:04.007Z,8.00
2019-03-25T06:09:03.989Z,8.00
2019-03-25T06:10:03.978Z,8.00
2019-03-25T06:11:04.266Z,8.00
2019-03-25T06:12:03.968Z,4.00
2019-03-25T06:13:03.944Z,8.00
2019-03-25T06:14:03.934Z,8.00
2019-03-25T06:15:03.935Z,4.00
2019-03-25T06:16:03.935Z,4.00
2019-03-25T06:17:04.076Z,4.00
2019-03-25T06:18:03.937Z,4.00
2019-03-25T06:19:03.908Z,4.00
2019-03-25T06:20:03.874Z,4.00
2019-03-25T06:21:03.868Z,4.00
2019-03-25T06:22:03.857Z,20.00
2019-03-25T06:23:03.949Z,20.00
2019-03-25T06:24:03.832Z,20.00
2019-03-25T06:25:03.819Z,12.00
2019-03-25T06:26:03.817Z,16.00
2019-03-25T06:27:13.656Z,12.00
2019-03-25T06:28:04.882Z,16.00
2019-03-25T06:29:03.772Z,12.00
2019-03-25T06:30:03.766Z,12.00
2019-03-25T06:31:03.751Z,12.00
2019-03-25T06:32:03.743Z,12.00
2019-03-25T06:33:11.907Z,16.00
2019-03-25T06:34:04.923Z,12.00
2019-03-25T06:35:03.710Z,16.00
2019-03-25T06:36:03.704Z,16.00
2019-03-25T06:37:03.688Z,16.00
2019-03-25T06:38:03.677Z,16.00
2019-03-25T06:39:03.674Z,16.00
2019-03-25T06:40:03.921Z,16.00
2019-03-25T06:41:03.646Z,16.00
2019-03-25T06:42:03.640Z,16.00
2019-03-25T06:43:03.621Z,16.00
2019-03-25T06:44:03.611Z,12.00
2019-03-25T06:45:03.607Z,12.00
2019-03-25T06:46:03.701Z,16.00
2019-03-25T06:47:03.585Z,12.00
2019-03-25T06:48:03.574Z,12.00
2019-03-25T06:49:03.563Z,12.00
2019-03-25T06:50:03.553Z,12.00
2019-03-25T06:51:03.543Z,16.00
2019-03-25T06:52:03.717Z,12.00
2019-03-25T06:53:03.522Z,16.00
2019-03-25T06:54:03.524Z,16.00
2019-03-25T06:55:03.510Z,16.00
2019-03-25T06:56:03.483Z,16.00
2019-03-25T06:57:03.479Z,16.00
2019-03-25T06:58:03.551Z,16.00
2019-03-25T06:59:03.448Z,16.00
2019-03-25T07:00:03.451Z,16.00
2019-03-25T07:01:03.426Z,16.00
2019-03-25T07:02:03.427Z,16.00
2019-03-25T07:03:03.409Z,12.00
2019-03-25T07:04:03.498Z,16.00
2019-03-25T07:05:03.389Z,16.00
2019-03-25T07:06:03.385Z,12.00
2019-03-25T07:07:03.394Z,16.00
2019-03-25T07:08:03.361Z,16.00
2019-03-25T07:09:03.399Z,16.00
2019-03-25T07:10:03.530Z,16.00
2019-03-25T07:11:03.335Z,12.00
2019-03-25T07:12:03.311Z,16.00
2019-03-25T07:13:03.304Z,16.00
2019-03-25T07:14:04.010Z,16.00
2019-03-25T07:15:03.298Z,12.00
2019-03-25T07:16:03.379Z,16.00
2019-03-25T07:17:03.255Z,16.00
2019-03-25T07:18:03.248Z,12.00
2019-03-25T07:19:03.236Z,16.00
2019-03-25T07:20:03.227Z,16.00
2019-03-25T07:21:03.211Z,20.00
2019-03-25T07:22:03.323Z,16.00
2019-03-25T07:23:03.195Z,16.00
2019-03-25T07:24:03.182Z,20.00
2019-03-25T07:25:03.172Z,20.00
2019-03-25T07:26:03.161Z,24.00
2019-03-25T07:27:03.149Z,24.00
2019-03-25T07:28:03.420Z,28.00
2019-03-25T07:29:03.129Z,28.00
2019-03-25T07:30:03.119Z,32.00
2019-03-25T07:31:03.110Z,28.00
2019-03-25T07:32:03.097Z,32.00
2019-03-25T07:33:03.085Z,32.00
2019-03-25T07:34:03.347Z,28.00
2019-03-25T07:35:03.089Z,32.00
2019-03-25T07:36:03.998Z,32.00
2019-03-25T07:37:03.039Z,32.00
2019-03-25T07:38:03.030Z,32.00
2019-03-25T07:39:03.013Z,32.00
2019-03-25T07:40:03.096Z,20.00
2019-03-25T07:41:02.991Z,36.00
2019-03-25T07:42:02.980Z,36.00
2019-03-25T07:43:02.979Z,32.00
2019-03-25T07:44:02.964Z,36.00
2019-03-25T07:45:02.950Z,40.00
2019-03-25T07:46:03.093Z,36.00
2019-03-25T07:47:02.931Z,36.00
2019-03-25T07:48:04.172Z,32.00
2019-03-25T07:49:02.919Z,32.00
2019-03-25T07:50:02.899Z,32.00
2019-03-25T07:51:02.889Z,36.00
2019-03-25T07:52:02.983Z,32.00
2019-03-25T07:53:02.868Z,32.00
2019-03-25T07:54:02.865Z,28.00
2019-03-25T07:55:02.851Z,24.00
2019-03-25T07:56:02.837Z,24.00
2019-03-25T07:57:02.822Z,20.00
2019-03-25T07:58:02.968Z,20.00
2019-03-25T07:59:02.824Z,20.00
2019-03-25T08:00:13.234Z,20.00
2019-03-25T08:01:03.777Z,20.00
2019-03-25T08:02:02.766Z,20.00
2019-03-25T08:03:02.767Z,20.00
2019-03-25T08:04:03.803Z,16.00
2019-03-25T08:05:02.772Z,16.00
2019-03-25T08:06:02.741Z,16.00
2019-03-25T08:07:02.752Z,16.00
2019-03-25T08:08:02.706Z,16.00
2019-03-25T08:09:04.034Z,16.00
2019-03-25T08:10:02.801Z,16.00
2019-03-25T08:11:02.668Z,16.00
2019-03-25T08:12:02.669Z,16.00
2019-03-25T08:13:02.720Z,16.00
2019-03-25T08:14:02.636Z,16.00
2019-03-25T08:15:02.665Z,16.00
2019-03-25T08:16:03.524Z,20.00
2019-03-25T08:17:02.612Z,20.00
2019-03-25T08:18:02.593Z,20.00
2019-03-25T08:19:02.596Z,24.00
2019-03-25T08:20:02.572Z,24.00
2019-03-25T08:21:02.562Z,24.00
2019-03-25T08:22:02.747Z,28.00
2019-03-25T08:23:02.557Z,24.00
2019-03-25T08:24:02.531Z,24.00
2019-03-25T08:25:02.517Z,32.00
2019-03-25T08:26:02.509Z,28.00
2019-03-25T08:27:02.495Z,28.00
2019-03-25T08:28:02.581Z,32.00
2019-03-25T08:29:02.483Z,32.00
2019-03-25T08:30:02.473Z,32.00
2019-03-25T08:31:02.454Z,36.00
2019-03-25T08:32:02.445Z,32.00
2019-03-25T08:33:02.429Z,36.00
2019-03-25T08:34:02.714Z,36.00
2019-03-25T08:35:02.408Z,36.00
2019-03-25T08:36:02.401Z,36.00
2019-03-25T08:37:04.421Z,36.00
2019-03-25T08:38:02.374Z,36.00
2019-03-25T08:39:02.360Z,36.00
2019-03-25T08:40:02.554Z,36.00
2019-03-25T08:41:02.340Z,32.00
2019-03-25T08:42:02.328Z,32.00
2019-03-25T08:43:02.328Z,32.00
2019-03-25T08:44:02.308Z,36.00
2019-03-25T08:45:02.299Z,32.00
2019-03-25T08:46:02.383Z,32.00
2019-03-25T08:47:02.272Z,32.00
2019-03-25T08:48:02.266Z,32.00
2019-03-25T08:49:02.260Z,28.00
2019-03-25T08:50:02.242Z,24.00
2019-03-25T08:51:02.231Z,28.00
2019-03-25T08:52:02.379Z,28.00
2019-03-25T08:53:02.209Z,28.00
2019-03-25T08:54:02.212Z,28.00
2019-03-25T08:55:02.187Z,32.00
2019-03-25T08:56:02.175Z,28.00
2019-03-25T08:57:02.167Z,32.00
2019-03-25T08:58:11.517Z,28.00
2019-03-25T08:59:03.141Z,32.00
2019-03-25T09:00:02.136Z,32.00
2019-03-25T09:01:02.124Z,32.00
2019-03-25T09:02:02.111Z,32.00
2019-03-25T09:03:02.100Z,36.00
2019-03-25T09:04:02.193Z,36.00
2019-03-25T09:05:02.078Z,36.00
2019-03-25T09:06:02.070Z,36.00
2019-03-25T09:07:02.058Z,40.00
2019-03-25T09:08:02.047Z,40.00
2019-03-25T09:09:02.035Z,44.00
2019-03-25T09:10:02.291Z,40.00
2019-03-25T09:11:02.013Z,44.00
2019-03-25T09:12:02.004Z,44.00
2019-03-25T09:13:01.992Z,44.00
2019-03-25T09:14:01.983Z,44.00
2019-03-25T09:15:01.970Z,40.00
2019-03-25T09:16:02.248Z,44.00
2019-03-25T09:17:01.947Z,44.00
2019-03-25T09:18:01.938Z,40.00
2019-03-25T09:19:01.929Z,48.00
2019-03-25T09:20:01.918Z,48.00
2019-03-25T09:21:01.907Z,44.00
2019-03-25T09:22:01.989Z,44.00
2019-03-25T09:23:01.905Z,40.00
2019-03-25T09:24:01.873Z,40.00
2019-03-25T09:25:01.864Z,36.00
2019-03-25T09:26:01.866Z,36.00
2019-03-25T09:27:01.859Z,32.00
2019-03-25T09:28:01.991Z,32.00
2019-03-25T09:29:01.818Z,32.00
2019-03-25T09:30:03.487Z,32.00
2019-03-25T09:31:01.806Z,32.00
2019-03-25T09:32:01.791Z,32.00
2019-03-25T09:33:01.774Z,32.00
2019-03-25T09:34:02.231Z,32.00
2019-03-25T09:35:01.751Z,32.00
2019-03-25T09:36:01.841Z,32.00
2019-03-25T09:37:01.736Z,28.00
2019-03-25T09:38:01.728Z,32.00
2019-03-25T09:39:01.712Z,28.00
2019-03-25T09:40:01.795Z,28.00
2019-03-25T09:41:01.687Z,28.00
2019-03-25T09:42:01.678Z,24.00
2019-03-25T09:43:01.667Z,24.00
2019-03-25T09:44:01.659Z,24.00
2019-03-25T09:45:01.644Z,28.00
2019-03-25T09:46:01.725Z,32.00
2019-03-25T09:47:01.625Z,32.00
2019-03-25T09:48:01.616Z,32.00
2019-03-25T09:49:01.607Z,32.00
2019-03-25T09:50:01.593Z,32.00
2019-03-25T09:51:01.577Z,32.00
2019-03-25T09:52:01.732Z,36.00
2019-03-25T09:53:01.567Z,40.00
2019-03-25T09:54:01.560Z,36.00
2019-03-25T09:55:01.546Z,36.00
2019-03-25T09:56:01.523Z,36.00
2019-03-25T09:57:01.516Z,36.00
2019-03-25T09:58:01.620Z,36.00
2019-03-25T09:59:01.490Z,36.00
2019-03-25T10:00:01.483Z,40.00
2019-03-25T10:01:01.471Z,40.00
2019-03-25T10:02:01.460Z,40.00
2019-03-25T10:03:01.449Z,40.00
2019-03-25T10:04:01.539Z,40.00
2019-03-25T10:05:01.438Z,44.00
2019-03-25T10:06:01.419Z,40.00
2019-03-25T10:07:01.414Z,44.00
2019-03-25T10:08:01.409Z,44.00
2019-03-25T10:09:01.387Z,44.00
2019-03-25T10:10:01.473Z,44.00
2019-03-25T10:11:01.366Z,44.00
2019-03-25T10:12:01.361Z,40.00
2019-03-25T10:13:01.350Z,44.00
2019-03-25T10:14:01.336Z,44.00
2019-03-25T10:15:01.321Z,40.00
2019-03-25T10:16:01.496Z,44.00
2019-03-25T10:17:01.306Z,44.00
2019-03-25T10:18:01.294Z,44.00
2019-03-25T10:19:01.281Z,48.00
2019-03-25T10:20:01.268Z,48.00
2019-03-25T10:21:01.255Z,48.00
2019-03-25T10:22:01.345Z,48.00
2019-03-25T10:23:01.244Z,48.00
2019-03-25T10:24:01.261Z,48.00
2019-03-25T10:25:01.219Z,48.00
2019-03-25T10:26:01.207Z,44.00
2019-03-25T10:27:01.190Z,48.00
2019-03-25T10:28:01.482Z,44.00
2019-03-25T10:29:01.170Z,48.00
2019-03-25T10:30:01.164Z,44.00
2019-03-25T10:31:01.148Z,44.00
2019-03-25T10:32:01.135Z,44.00
2019-03-25T10:33:01.130Z,44.00
2019-03-25T10:34:01.618Z,44.00
2019-03-25T10:35:01.109Z,48.00
2019-03-25T10:36:01.094Z,48.00
2019-03-25T10:37:01.089Z,52.00
2019-03-25T10:38:01.070Z,56.00
2019-03-25T10:39:01.088Z,56.00
2019-03-25T10:40:01.417Z,56.00
2019-03-25T10:41:01.038Z,60.00
2019-03-25T10:42:01.030Z,72.00
2019-03-25T10:43:01.017Z,76.00
2019-03-25T10:44:01.010Z,56.00
2019-03-25T10:45:01.004Z,64.00
2019-03-25T10:46:01.168Z,68.00
2019-03-25T10:47:00.973Z,92.00
2019-03-25T10:48:00.968Z,88.00
2019-03-25T10:49:00.955Z,100.00
2019-03-25T10:50:00.944Z,108.00
2019-03-25T10:51:00.930Z,64.00
2019-03-25T10:52:01.010Z,60.00
2019-03-25T10:53:00.907Z,56.00
2019-03-25T10:54:00.903Z,76.00
2019-03-25T10:55:00.888Z,60.00
2019-03-25T10:56:00.884Z,56.00
2019-03-25T10:57:00.868Z,76.00
2019-03-25T10:58:01.036Z,68.00
2019-03-25T10:59:00.842Z,116.00
2019-03-25T11:00:00.834Z,80.00
2019-03-25T11:01:00.820Z,72.00
2019-03-25T11:02:00.810Z,104.00
2019-03-25T11:03:00.800Z,76.00
2019-03-25T11:04:00.885Z,76.00
2019-03-25T11:05:00.780Z,112.00
2019-03-25T11:06:00.768Z,112.00
2019-03-25T11:07:00.756Z,116.00
2019-03-25T11:08:00.746Z,112.00
2019-03-25T11:09:00.745Z,100.00
2019-03-25T11:10:00.976Z,56.00
2019-03-25T11:11:00.718Z,56.00
2019-03-25T11:12:00.712Z,56.00
2019-03-25T11:13:00.694Z,116.00
2019-03-25T11:14:00.681Z,104.00
2019-03-25T11:15:00.682Z,76.00
2019-03-25T11:16:00.752Z,120.00
2019-03-25T11:17:00.658Z,124.00
2019-03-25T11:18:00.638Z,132.00
2019-03-25T11:19:00.625Z,128.00
2019-03-25T11:20:00.615Z,112.00
2019-03-25T11:21:00.604Z,76.00
2019-03-25T11:22:00.891Z,76.00
2019-03-25T11:23:00.582Z,76.00
2019-03-25T11:24:00.578Z,68.00
2019-03-25T11:25:00.563Z,68.00
2019-03-25T11:26:00.552Z,64.00
2019-03-25T11:27:00.539Z,52.00
2019-03-25T11:28:00.622Z,48.00
2019-03-25T11:29:04.595Z,48.00
2019-03-25T11:30:01.509Z,36.00
2019-03-25T11:31:00.499Z,32.00
2019-03-25T11:32:00.483Z,36.00
2019-03-25T11:33:00.498Z,36.00
2019-03-25T11:34:00.606Z,32.00
2019-03-25T11:35:00.452Z,36.00
2019-03-25T11:36:02.602Z,36.00
2019-03-25T11:37:00.439Z,32.00
2019-03-25T11:38:00.418Z,32.00
2019-03-25T11:39:00.409Z,32.00
2019-03-25T11:40:00.599Z,32.00
2019-03-25T11:41:00.403Z,32.00
2019-03-25T11:42:00.374Z,32.00
2019-03-25T11:43:00.365Z,32.00
2019-03-25T11:44:00.354Z,28.00
2019-03-25T11:45:00.371Z,28.00
2019-03-25T11:46:00.429Z,28.00
2019-03-25T11:47:00.324Z,24.00
2019-03-25T11:48:00.314Z,24.00
2019-03-25T11:49:00.309Z,24.00
2019-03-25T11:50:00.323Z,24.00
2019-03-25T11:51:00.277Z,20.00
2019-03-25T11:52:00.361Z,20.00
2019-03-25T11:53:00.265Z,16.00
2019-03-25T11:54:00.252Z,16.00
2019-03-25T11:55:00.337Z,20.00
2019-03-25T11:56:00.224Z,24.00
2019-03-25T11:57:00.211Z,20.00
2019-03-25T11:58:00.377Z,24.00
2019-03-25T11:59:00.197Z,24.00
2019-03-25T12:00:00.331Z,24.00
2019-03-25T12:01:00.170Z,24.00
2019-03-25T12:02:00.158Z,20.00
2019-03-25T12:03:00.178Z,16.00
2019-03-25T12:04:00.416Z,20.00
2019-03-25T12:05:00.310Z,20.00
2019-03-25T12:06:00.118Z,20.00
2019-03-25T12:07:00.104Z,20.00
2019-03-25T12:08:00.099Z,20.00
2019-03-25T12:09:00.083Z,20.00
2019-03-25T12:10:00.297Z,16.00
2019-03-25T12:11:00.071Z,16.00
2019-03-25T12:12:00.049Z,12.00
2019-03-25T12:13:00.045Z,12.00
2019-03-25T12:14:01.010Z,12.00
2019-03-25T12:15:01.665Z,8.00
2019-03-25T12:16:00.107Z,12.00
2019-03-25T12:16:59.996Z,8.00
2019-03-25T12:17:59.990Z,8.00
2019-03-25T12:18:59.974Z,8.00
2019-03-25T12:19:59.962Z,8.00
2019-03-25T12:20:59.952Z,8.00
2019-03-25T12:22:00.107Z,12.00
2019-03-25T12:22:59.933Z,8.00
2019-03-25T12:23:59.918Z,8.00
2019-03-25T12:24:59.909Z,8.00
2019-03-25T12:25:59.899Z,8.00
2019-03-25T12:26:59.889Z,8.00
2019-03-25T12:28:00.117Z,8.00
2019-03-25T12:28:59.864Z,8.00
2019-03-25T12:29:59.862Z,8.00
2019-03-25T12:30:59.849Z,8.00
2019-03-25T12:32:01.418Z,8.00
2019-03-25T12:33:04.142Z,8.00
2019-03-25T12:33:59.904Z,8.00
2019-03-25T12:34:59.801Z,4.00
2019-03-25T12:36:00.521Z,8.00
2019-03-25T12:36:59.779Z,4.00
2019-03-25T12:37:59.769Z,4.00
2019-03-25T12:38:59.757Z,4.00
2019-03-25T12:39:59.840Z,4.00
2019-03-25T12:40:59.736Z,4.00
2019-03-25T12:41:59.724Z,4.00
2019-03-25T12:42:59.712Z,4.00
2019-03-25T12:43:59.713Z,4.00
2019-03-25T12:44:59.708Z,4.00
2019-03-25T12:45:59.961Z,4.00
2019-03-25T12:46:59.672Z,4.00
2019-03-25T12:47:59.660Z,4.00
2019-03-25T12:48:59.653Z,8.00
2019-03-25T12:49:59.644Z,8.00
2019-03-25T12:50:59.658Z,8.00
2019-03-25T12:51:59.731Z,8.00
2019-03-25T12:52:59.610Z,12.00
2019-03-25T12:53:59.599Z,8.00
2019-03-25T12:54:59.585Z,12.00
2019-03-25T12:55:59.578Z,12.00
2019-03-25T12:57:00.507Z,16.00
2019-03-25T12:57:59.678Z,16.00
2019-03-25T12:58:59.544Z,16.00
2019-03-25T12:59:59.530Z,16.00
2019-03-25T13:00:59.521Z,16.00
2019-03-25T13:01:59.537Z,12.00
2019-03-25T13:02:59.498Z,12.00
2019-03-25T13:03:59.780Z,12.00
2019-03-25T13:04:59.481Z,12.00